sensor_id;sensor_type;location;lat;lon;timestamp;P1;durP1;ratioP1;P2;durP2;ratioP2
26656;SDS011;14279;50.010;8.260;2023-12-20T00:02:04;6.87;;;4.60;;
26656;SDS011;14279;50.010;8.260;2023-12-20T00:04:30;5.97;;;5.43;;
26656;SDS011;14279;50.010;8.260;2023-12-20T00:06:55;7.70;;;5.53;;
26656;SDS011;14279;50.010;8.260;2023-12-20T00:09:20;4.50;;;4.10;;
26656;SDS011;14279;50.010;8.260;2023-12-20T00:11:45;8.00;;;5.50;;
26656;SDS011;14279;50.010;8.260;2023-12-20T00:14:11;6.83;;;4.70;;
26656;SDS011;14279;50.010;8.260;2023-12-20T00:16:36;5.50;;;4.87;;
26656;SDS011;14279;50.010;8.260;2023-12-20T00:19:01;5.10;;;4.60;;
26656;SDS011;14279;50.010;8.260;2023-12-20T00:21:27;6.20;;;5.03;;
26656;SDS011;14279;50.010;8.260;2023-12-20T00:23:52;5.47;;;4.97;;
26656;SDS011;14279;50.010;8.260;2023-12-20T00:26:17;4.67;;;4.27;;
26656;SDS011;14279;50.010;8.260;2023-12-20T00:28:43;4.57;;;4.17;;
26656;SDS011;14279;50.010;8.260;2023-12-20T00:31:08;4.40;;;3.80;;
26656;SDS011;14279;50.010;8.260;2023-12-20T00:33:33;5.10;;;4.60;;
26656;SDS011;14279;50.010;8.260;2023-12-20T00:35:59;4.20;;;3.90;;
26656;SDS011;14279;50.010;8.260;2023-12-20T00:38:24;4.60;;;4.20;;
26656;SDS011;14279;50.010;8.260;2023-12-20T00:40:49;5.40;;;4.10;;
26656;SDS011;14279;50.010;8.260;2023-12-20T00:43:15;5.07;;;4.30;;
26656;SDS011;14279;50.010;8.260;2023-12-20T00:45:40;4.90;;;4.50;;
26656;SDS011;14279;50.010;8.260;2023-12-20T00:48:05;4.80;;;4.10;;
26656;SDS011;14279;50.010;8.260;2023-12-20T00:50:31;4.60;;;4.20;;
26656;SDS011;14279;50.010;8.260;2023-12-20T00:52:56;4.27;;;3.87;;
26656;SDS011;14279;50.010;8.260;2023-12-20T00:55:22;4.30;;;4.00;;
26656;SDS011;14279;50.010;8.260;2023-12-20T00:57:47;7.90;;;4.40;;
26656;SDS011;14279;50.010;8.260;2023-12-20T01:00:12;4.40;;;4.00;;
26656;SDS011;14279;50.010;8.260;2023-12-20T01:02:38;5.67;;;3.63;;
26656;SDS011;14279;50.010;8.260;2023-12-20T01:05:03;4.10;;;3.70;;
26656;SDS011;14279;50.010;8.260;2023-12-20T01:07:29;4.93;;;3.80;;
26656;SDS011;14279;50.010;8.260;2023-12-20T01:09:54;4.40;;;4.00;;
26656;SDS011;14279;50.010;8.260;2023-12-20T01:12:19;4.73;;;4.20;;
26656;SDS011;14279;50.010;8.260;2023-12-20T01:14:45;4.20;;;3.43;;
26656;SDS011;14279;50.010;8.260;2023-12-20T01:17:10;3.60;;;3.30;;
26656;SDS011;14279;50.010;8.260;2023-12-20T01:19:36;5.03;;;3.20;;
26656;SDS011;14279;50.010;8.260;2023-12-20T01:22:01;4.57;;;3.43;;
26656;SDS011;14279;50.010;8.260;2023-12-20T01:24:26;4.03;;;3.67;;
26656;SDS011;14279;50.010;8.260;2023-12-20T01:26:52;3.47;;;3.20;;
26656;SDS011;14279;50.010;8.260;2023-12-20T01:29:17;3.37;;;2.90;;
26656;SDS011;14279;50.010;8.260;2023-12-20T01:31:42;3.27;;;2.97;;
26656;SDS011;14279;50.010;8.260;2023-12-20T01:34:07;3.13;;;2.93;;
26656;SDS011;14279;50.010;8.260;2023-12-20T01:36:33;3.13;;;2.90;;
26656;SDS011;14279;50.010;8.260;2023-12-20T01:38:58;3.20;;;3.00;;
26656;SDS011;14279;50.010;8.260;2023-12-20T01:41:23;3.13;;;2.93;;
26656;SDS011;14279;50.010;8.260;2023-12-20T01:43:48;2.83;;;2.53;;
26656;SDS011;14279;50.010;8.260;2023-12-20T01:46:14;2.50;;;2.30;;
26656;SDS011;14279;50.010;8.260;2023-12-20T01:48:39;2.77;;;2.57;;
26656;SDS011;14279;50.010;8.260;2023-12-20T01:51:05;2.90;;;2.70;;
26656;SDS011;14279;50.010;8.260;2023-12-20T01:53:30;2.63;;;2.50;;
26656;SDS011;14279;50.010;8.260;2023-12-20T01:55:57;3.00;;;2.70;;
26656;SDS011;14279;50.010;8.260;2023-12-20T01:58:23;3.30;;;3.10;;
26656;SDS011;14279;50.010;8.260;2023-12-20T02:00:50;2.93;;;2.73;;
26656;SDS011;14279;50.010;8.260;2023-12-20T02:03:16;3.20;;;3.00;;
26656;SDS011;14279;50.010;8.260;2023-12-20T02:05:41;3.90;;;2.80;;
26656;SDS011;14279;50.010;8.260;2023-12-20T02:08:07;2.90;;;2.70;;
26656;SDS011;14279;50.010;8.260;2023-12-20T02:10:32;3.23;;;2.93;;
26656;SDS011;14279;50.010;8.260;2023-12-20T02:12:58;2.50;;;2.40;;
26656;SDS011;14279;50.010;8.260;2023-12-20T02:15:23;7.73;;;2.33;;
26656;SDS011;14279;50.010;8.260;2023-12-20T02:17:49;2.80;;;2.60;;
26656;SDS011;14279;50.010;8.260;2023-12-20T02:20:14;4.57;;;2.60;;
26656;SDS011;14279;50.010;8.260;2023-12-20T02:22:40;2.40;;;2.13;;
26656;SDS011;14279;50.010;8.260;2023-12-20T02:25:05;2.70;;;2.50;;
26656;SDS011;14279;50.010;8.260;2023-12-20T02:27:31;2.60;;;2.40;;
26656;SDS011;14279;50.010;8.260;2023-12-20T02:29:56;3.20;;;3.00;;
26656;SDS011;14279;50.010;8.260;2023-12-20T02:32:22;2.70;;;2.50;;
26656;SDS011;14279;50.010;8.260;2023-12-20T02:34:51;2.33;;;2.13;;
26656;SDS011;14279;50.010;8.260;2023-12-20T02:37:17;4.97;;;2.23;;
26656;SDS011;14279;50.010;8.260;2023-12-20T02:39:42;2.40;;;1.77;;
26656;SDS011;14279;50.010;8.260;2023-12-20T02:42:07;2.10;;;2.00;;
26656;SDS011;14279;50.010;8.260;2023-12-20T02:44:32;2.10;;;2.00;;
26656;SDS011;14279;50.010;8.260;2023-12-20T02:46:58;3.77;;;2.10;;
26656;SDS011;14279;50.010;8.260;2023-12-20T02:49:24;2.00;;;1.90;;
26656;SDS011;14279;50.010;8.260;2023-12-20T02:51:49;1.63;;;1.53;;
26656;SDS011;14279;50.010;8.260;2023-12-20T02:54:14;3.00;;;2.00;;
26656;SDS011;14279;50.010;8.260;2023-12-20T02:56:39;1.93;;;1.70;;
26656;SDS011;14279;50.010;8.260;2023-12-20T02:59:05;2.00;;;1.90;;
26656;SDS011;14279;50.010;8.260;2023-12-20T03:01:31;7.40;;;1.70;;
26656;SDS011;14279;50.010;8.260;2023-12-20T03:03:57;1.83;;;1.70;;
26656;SDS011;14279;50.010;8.260;2023-12-20T03:06:22;2.10;;;2.00;;
26656;SDS011;14279;50.010;8.260;2023-12-20T03:08:48;2.00;;;1.90;;
26656;SDS011;14279;50.010;8.260;2023-12-20T03:11:13;1.87;;;1.77;;
26656;SDS011;14279;50.010;8.260;2023-12-20T03:13:38;1.87;;;1.77;;
26656;SDS011;14279;50.010;8.260;2023-12-20T03:16:10;2.10;;;1.90;;
26656;SDS011;14279;50.010;8.260;2023-12-20T03:18:37;1.73;;;1.63;;
26656;SDS011;14279;50.010;8.260;2023-12-20T03:21:02;1.40;;;1.40;;
26656;SDS011;14279;50.010;8.260;2023-12-20T03:23:27;1.57;;;1.50;;
26656;SDS011;14279;50.010;8.260;2023-12-20T03:25:55;1.77;;;1.67;;
26656;SDS011;14279;50.010;8.260;2023-12-20T03:28:20;1.43;;;1.43;;
26656;SDS011;14279;50.010;8.260;2023-12-20T03:30:46;1.80;;;1.70;;
26656;SDS011;14279;50.010;8.260;2023-12-20T03:33:11;1.70;;;1.60;;
26656;SDS011;14279;50.010;8.260;2023-12-20T03:35:36;1.70;;;1.60;;
26656;SDS011;14279;50.010;8.260;2023-12-20T03:38:01;1.97;;;1.87;;
26656;SDS011;14279;50.010;8.260;2023-12-20T03:40:27;1.40;;;1.30;;
26656;SDS011;14279;50.010;8.260;2023-12-20T03:42:52;2.90;;;2.00;;
26656;SDS011;14279;50.010;8.260;2023-12-20T03:45:17;1.43;;;1.43;;
26656;SDS011;14279;50.010;8.260;2023-12-20T03:47:43;2.23;;;1.83;;
26656;SDS011;14279;50.010;8.260;2023-12-20T03:50:08;1.80;;;1.70;;
26656;SDS011;14279;50.010;8.260;2023-12-20T03:52:33;1.90;;;1.80;;
26656;SDS011;14279;50.010;8.260;2023-12-20T03:54:58;1.60;;;1.50;;
26656;SDS011;14279;50.010;8.260;2023-12-20T03:57:23;1.80;;;1.70;;
26656;SDS011;14279;50.010;8.260;2023-12-20T03:59:49;1.87;;;1.77;;
26656;SDS011;14279;50.010;8.260;2023-12-20T04:02:14;2.57;;;1.70;;
26656;SDS011;14279;50.010;8.260;2023-12-20T04:04:39;1.67;;;1.57;;
26656;SDS011;14279;50.010;8.260;2023-12-20T04:07:04;1.80;;;1.70;;
26656;SDS011;14279;50.010;8.260;2023-12-20T04:09:30;1.50;;;1.40;;
26656;SDS011;14279;50.010;8.260;2023-12-20T04:11:55;1.40;;;1.30;;
26656;SDS011;14279;50.010;8.260;2023-12-20T04:14:20;2.20;;;1.60;;
26656;SDS011;14279;50.010;8.260;2023-12-20T04:16:46;1.33;;;1.33;;
26656;SDS011;14279;50.010;8.260;2023-12-20T04:19:11;1.60;;;1.50;;
26656;SDS011;14279;50.010;8.260;2023-12-20T04:21:36;1.50;;;1.40;;
26656;SDS011;14279;50.010;8.260;2023-12-20T04:24:02;1.83;;;1.53;;
26656;SDS011;14279;50.010;8.260;2023-12-20T04:26:27;1.40;;;1.30;;
26656;SDS011;14279;50.010;8.260;2023-12-20T04:28:52;1.67;;;1.57;;
26656;SDS011;14279;50.010;8.260;2023-12-20T04:31:17;2.10;;;1.73;;
26656;SDS011;14279;50.010;8.260;2023-12-20T04:33:42;1.87;;;1.60;;
26656;SDS011;14279;50.010;8.260;2023-12-20T04:36:08;1.27;;;1.23;;
26656;SDS011;14279;50.010;8.260;2023-12-20T04:38:34;1.40;;;1.40;;
26656;SDS011;14279;50.010;8.260;2023-12-20T04:40:59;6.47;;;1.47;;
26656;SDS011;14279;50.010;8.260;2023-12-20T04:43:24;2.80;;;1.20;;
26656;SDS011;14279;50.010;8.260;2023-12-20T04:45:49;1.40;;;1.40;;
26656;SDS011;14279;50.010;8.260;2023-12-20T04:48:15;1.67;;;1.57;;
26656;SDS011;14279;50.010;8.260;2023-12-20T04:50:40;4.40;;;1.50;;
26656;SDS011;14279;50.010;8.260;2023-12-20T04:53:05;4.83;;;1.37;;
26656;SDS011;14279;50.010;8.260;2023-12-20T04:55:31;1.67;;;1.40;;
26656;SDS011;14279;50.010;8.260;2023-12-20T04:57:56;5.47;;;1.50;;
26656;SDS011;14279;50.010;8.260;2023-12-20T05:00:21;2.00;;;1.80;;
26656;SDS011;14279;50.010;8.260;2023-12-20T05:02:47;2.30;;;1.50;;
26656;SDS011;14279;50.010;8.260;2023-12-20T05:05:12;2.83;;;1.53;;
26656;SDS011;14279;50.010;8.260;2023-12-20T05:07:37;2.73;;;1.33;;
26656;SDS011;14279;50.010;8.260;2023-12-20T05:10:03;5.37;;;1.40;;
26656;SDS011;14279;50.010;8.260;2023-12-20T05:12:29;9.00;;;1.50;;
26656;SDS011;14279;50.010;8.260;2023-12-20T05:14:55;2.97;;;1.83;;
26656;SDS011;14279;50.010;8.260;2023-12-20T05:17:20;2.67;;;1.80;;
26656;SDS011;14279;50.010;8.260;2023-12-20T05:19:45;4.03;;;1.60;;
26656;SDS011;14279;50.010;8.260;2023-12-20T05:22:11;5.87;;;1.80;;
26656;SDS011;14279;50.010;8.260;2023-12-20T05:24:36;7.37;;;1.40;;
26656;SDS011;14279;50.010;8.260;2023-12-20T05:27:01;2.40;;;1.50;;
26656;SDS011;14279;50.010;8.260;2023-12-20T05:29:27;7.80;;;1.87;;
26656;SDS011;14279;50.010;8.260;2023-12-20T05:31:52;7.30;;;1.73;;
26656;SDS011;14279;50.010;8.260;2023-12-20T05:34:17;6.70;;;1.87;;
26656;SDS011;14279;50.010;8.260;2023-12-20T05:36:42;6.23;;;1.80;;
26656;SDS011;14279;50.010;8.260;2023-12-20T05:39:08;3.83;;;1.50;;
26656;SDS011;14279;50.010;8.260;2023-12-20T05:41:33;6.27;;;1.67;;
26656;SDS011;14279;50.010;8.260;2023-12-20T05:43:58;5.97;;;2.00;;
26656;SDS011;14279;50.010;8.260;2023-12-20T05:46:24;3.83;;;1.47;;
26656;SDS011;14279;50.010;8.260;2023-12-20T05:48:49;4.67;;;1.77;;
26656;SDS011;14279;50.010;8.260;2023-12-20T05:51:16;7.83;;;1.67;;
26656;SDS011;14279;50.010;8.260;2023-12-20T05:53:42;11.57;;;1.60;;
26656;SDS011;14279;50.010;8.260;2023-12-20T05:56:07;6.20;;;2.00;;
26656;SDS011;14279;50.010;8.260;2023-12-20T05:58:32;5.63;;;1.63;;
26656;SDS011;14279;50.010;8.260;2023-12-20T06:00:58;6.63;;;2.07;;
26656;SDS011;14279;50.010;8.260;2023-12-20T06:03:23;4.23;;;1.83;;
26656;SDS011;14279;50.010;8.260;2023-12-20T06:05:48;8.53;;;1.63;;
26656;SDS011;14279;50.010;8.260;2023-12-20T06:08:14;2.53;;;1.43;;
26656;SDS011;14279;50.010;8.260;2023-12-20T06:10:39;4.47;;;1.90;;
26656;SDS011;14279;50.010;8.260;2023-12-20T06:13:05;4.53;;;1.80;;
26656;SDS011;14279;50.010;8.260;2023-12-20T06:15:31;5.90;;;2.00;;
26656;SDS011;14279;50.010;8.260;2023-12-20T06:17:57;4.57;;;2.17;;
26656;SDS011;14279;50.010;8.260;2023-12-20T06:20:22;3.17;;;1.60;;
26656;SDS011;14279;50.010;8.260;2023-12-20T06:22:47;8.63;;;1.90;;
26656;SDS011;14279;50.010;8.260;2023-12-20T06:25:13;4.67;;;1.67;;
26656;SDS011;14279;50.010;8.260;2023-12-20T06:27:38;5.77;;;1.80;;
26656;SDS011;14279;50.010;8.260;2023-12-20T06:30:03;5.63;;;2.00;;
26656;SDS011;14279;50.010;8.260;2023-12-20T06:32:29;5.00;;;2.10;;
26656;SDS011;14279;50.010;8.260;2023-12-20T06:34:54;6.00;;;2.00;;
26656;SDS011;14279;50.010;8.260;2023-12-20T06:37:19;6.83;;;1.87;;
26656;SDS011;14279;50.010;8.260;2023-12-20T06:39:45;3.47;;;1.57;;
26656;SDS011;14279;50.010;8.260;2023-12-20T06:42:10;10.63;;;2.20;;
26656;SDS011;14279;50.010;8.260;2023-12-20T06:44:35;6.27;;;1.97;;
26656;SDS011;14279;50.010;8.260;2023-12-20T06:47:01;6.20;;;2.23;;
26656;SDS011;14279;50.010;8.260;2023-12-20T06:49:27;3.93;;;1.87;;
26656;SDS011;14279;50.010;8.260;2023-12-20T06:51:52;6.40;;;2.00;;
26656;SDS011;14279;50.010;8.260;2023-12-20T06:54:18;10.50;;;1.83;;
26656;SDS011;14279;50.010;8.260;2023-12-20T06:56:43;6.37;;;2.57;;
26656;SDS011;14279;50.010;8.260;2023-12-20T06:59:08;8.50;;;2.13;;
26656;SDS011;14279;50.010;8.260;2023-12-20T07:01:33;11.10;;;2.10;;
26656;SDS011;14279;50.010;8.260;2023-12-20T07:03:59;6.67;;;2.27;;
26656;SDS011;14279;50.010;8.260;2023-12-20T07:06:24;9.90;;;2.20;;
26656;SDS011;14279;50.010;8.260;2023-12-20T07:08:50;6.60;;;1.80;;
26656;SDS011;14279;50.010;8.260;2023-12-20T07:11:17;7.67;;;2.27;;
26656;SDS011;14279;50.010;8.260;2023-12-20T07:13:42;5.20;;;2.20;;
26656;SDS011;14279;50.010;8.260;2023-12-20T07:16:07;4.57;;;1.97;;
26656;SDS011;14279;50.010;8.260;2023-12-20T07:18:32;6.83;;;2.50;;
26656;SDS011;14279;50.010;8.260;2023-12-20T07:20:58;7.60;;;3.00;;
26656;SDS011;14279;50.010;8.260;2023-12-20T07:23:23;10.33;;;2.20;;
26656;SDS011;14279;50.010;8.260;2023-12-20T07:25:48;9.17;;;2.57;;
26656;SDS011;14279;50.010;8.260;2023-12-20T07:28:13;6.93;;;2.40;;
26656;SDS011;14279;50.010;8.260;2023-12-20T07:30:39;7.30;;;2.70;;
26656;SDS011;14279;50.010;8.260;2023-12-20T07:33:05;9.47;;;3.30;;
26656;SDS011;14279;50.010;8.260;2023-12-20T07:35:33;6.33;;;2.50;;
26656;SDS011;14279;50.010;8.260;2023-12-20T07:37:58;11.30;;;2.67;;
26656;SDS011;14279;50.010;8.260;2023-12-20T07:40:23;4.60;;;1.60;;
26656;SDS011;14279;50.010;8.260;2023-12-20T07:42:49;8.13;;;2.83;;
26656;SDS011;14279;50.010;8.260;2023-12-20T07:45:14;7.40;;;2.60;;
26656;SDS011;14279;50.010;8.260;2023-12-20T07:47:40;8.80;;;2.80;;
26656;SDS011;14279;50.010;8.260;2023-12-20T07:50:06;8.63;;;2.37;;
26656;SDS011;14279;50.010;8.260;2023-12-20T07:52:31;4.77;;;2.40;;
26656;SDS011;14279;50.010;8.260;2023-12-20T07:54:56;4.90;;;2.47;;
26656;SDS011;14279;50.010;8.260;2023-12-20T07:57:23;5.20;;;2.47;;
26656;SDS011;14279;50.010;8.260;2023-12-20T07:59:48;6.77;;;2.50;;
26656;SDS011;14279;50.010;8.260;2023-12-20T08:02:14;6.63;;;2.90;;
26656;SDS011;14279;50.010;8.260;2023-12-20T08:04:39;7.40;;;2.20;;
26656;SDS011;14279;50.010;8.260;2023-12-20T08:07:06;6.50;;;1.87;;
26656;SDS011;14279;50.010;8.260;2023-12-20T08:09:31;5.07;;;1.70;;
26656;SDS011;14279;50.010;8.260;2023-12-20T08:11:58;7.67;;;2.20;;
26656;SDS011;14279;50.010;8.260;2023-12-20T08:14:24;11.87;;;2.97;;
26656;SDS011;14279;50.010;8.260;2023-12-20T08:16:50;10.90;;;2.17;;
26656;SDS011;14279;50.010;8.260;2023-12-20T08:19:15;8.97;;;2.33;;
26656;SDS011;14279;50.010;8.260;2023-12-20T08:21:41;8.73;;;2.33;;
26656;SDS011;14279;50.010;8.260;2023-12-20T08:24:06;8.43;;;2.43;;
26656;SDS011;14279;50.010;8.260;2023-12-20T08:26:32;7.83;;;2.67;;
26656;SDS011;14279;50.010;8.260;2023-12-20T08:28:58;9.40;;;2.47;;
26656;SDS011;14279;50.010;8.260;2023-12-20T08:31:23;8.30;;;1.93;;
26656;SDS011;14279;50.010;8.260;2023-12-20T08:33:48;7.90;;;2.10;;
26656;SDS011;14279;50.010;8.260;2023-12-20T08:36:14;8.80;;;2.60;;
26656;SDS011;14279;50.010;8.260;2023-12-20T08:38:40;11.67;;;2.87;;
26656;SDS011;14279;50.010;8.260;2023-12-20T08:41:05;13.07;;;2.63;;
26656;SDS011;14279;50.010;8.260;2023-12-20T08:43:31;10.80;;;2.10;;
26656;SDS011;14279;50.010;8.260;2023-12-20T08:45:57;5.33;;;2.43;;
26656;SDS011;14279;50.010;8.260;2023-12-20T08:48:22;11.30;;;2.10;;
26656;SDS011;14279;50.010;8.260;2023-12-20T08:50:48;10.40;;;2.67;;
26656;SDS011;14279;50.010;8.260;2023-12-20T08:53:15;9.53;;;2.37;;
26656;SDS011;14279;50.010;8.260;2023-12-20T08:55:41;6.97;;;2.27;;
26656;SDS011;14279;50.010;8.260;2023-12-20T08:58:06;6.40;;;2.10;;
26656;SDS011;14279;50.010;8.260;2023-12-20T09:00:33;10.47;;;2.57;;
26656;SDS011;14279;50.010;8.260;2023-12-20T09:02:58;9.97;;;2.23;;
26656;SDS011;14279;50.010;8.260;2023-12-20T09:05:24;8.97;;;2.80;;
26656;SDS011;14279;50.010;8.260;2023-12-20T09:07:50;10.33;;;2.53;;
26656;SDS011;14279;50.010;8.260;2023-12-20T09:10:15;10.07;;;3.10;;
26656;SDS011;14279;50.010;8.260;2023-12-20T09:12:40;8.00;;;2.20;;
26656;SDS011;14279;50.010;8.260;2023-12-20T09:15:07;2.90;;;2.27;;
26656;SDS011;14279;50.010;8.260;2023-12-20T09:17:33;7.20;;;2.40;;
26656;SDS011;14279;50.010;8.260;2023-12-20T09:19:58;7.53;;;2.50;;
26656;SDS011;14279;50.010;8.260;2023-12-20T09:22:24;10.33;;;2.27;;
26656;SDS011;14279;50.010;8.260;2023-12-20T09:24:50;16.67;;;2.90;;
26656;SDS011;14279;50.010;8.260;2023-12-20T09:27:15;9.17;;;2.50;;
26656;SDS011;14279;50.010;8.260;2023-12-20T09:29:40;8.10;;;2.80;;
26656;SDS011;14279;50.010;8.260;2023-12-20T09:32:06;5.73;;;2.40;;
26656;SDS011;14279;50.010;8.260;2023-12-20T09:34:31;8.10;;;2.10;;
26656;SDS011;14279;50.010;8.260;2023-12-20T09:36:56;8.63;;;2.90;;
26656;SDS011;14279;50.010;8.260;2023-12-20T09:39:21;7.23;;;2.73;;
26656;SDS011;14279;50.010;8.260;2023-12-20T09:42:06;9.83;;;3.43;;
26656;SDS011;14279;50.010;8.260;2023-12-20T09:44:32;7.53;;;2.10;;
26656;SDS011;14279;50.010;8.260;2023-12-20T09:46:59;8.70;;;2.80;;
26656;SDS011;14279;50.010;8.260;2023-12-20T09:49:27;8.87;;;2.40;;
26656;SDS011;14279;50.010;8.260;2023-12-20T09:51:53;11.97;;;2.70;;
26656;SDS011;14279;50.010;8.260;2023-12-20T09:54:19;9.80;;;3.03;;
26656;SDS011;14279;50.010;8.260;2023-12-20T09:56:45;8.03;;;2.47;;
26656;SDS011;14279;50.010;8.260;2023-12-20T09:59:11;7.57;;;2.43;;
26656;SDS011;14279;50.010;8.260;2023-12-20T10:01:36;6.13;;;2.30;;
26656;SDS011;14279;50.010;8.260;2023-12-20T10:04:05;13.33;;;2.60;;
26656;SDS011;14279;50.010;8.260;2023-12-20T10:06:37;5.93;;;2.33;;
26656;SDS011;14279;50.010;8.260;2023-12-20T10:09:04;12.17;;;3.47;;
26656;SDS011;14279;50.010;8.260;2023-12-20T10:11:29;10.03;;;2.80;;
26656;SDS011;14279;50.010;8.260;2023-12-20T10:14:01;12.80;;;3.20;;
26656;SDS011;14279;50.010;8.260;2023-12-20T10:16:27;6.93;;;2.73;;
26656;SDS011;14279;50.010;8.260;2023-12-20T10:18:53;7.13;;;2.70;;
26656;SDS011;14279;50.010;8.260;2023-12-20T10:21:24;10.10;;;2.90;;
26656;SDS011;14279;50.010;8.260;2023-12-20T10:23:51;14.07;;;2.30;;
26656;SDS011;14279;50.010;8.260;2023-12-20T10:26:20;11.50;;;2.10;;
26656;SDS011;14279;50.010;8.260;2023-12-20T10:28:49;7.77;;;2.50;;
26656;SDS011;14279;50.010;8.260;2023-12-20T10:31:25;13.13;;;2.70;;
26656;SDS011;14279;50.010;8.260;2023-12-20T10:33:52;4.13;;;2.00;;
26656;SDS011;14279;50.010;8.260;2023-12-20T10:36:17;3.67;;;2.10;;
26656;SDS011;14279;50.010;8.260;2023-12-20T10:38:43;11.83;;;2.67;;
26656;SDS011;14279;50.010;8.260;2023-12-20T10:41:09;9.40;;;2.63;;
26656;SDS011;14279;50.010;8.260;2023-12-20T10:43:35;9.80;;;2.60;;
26656;SDS011;14279;50.010;8.260;2023-12-20T10:46:02;13.53;;;2.47;;
26656;SDS011;14279;50.010;8.260;2023-12-20T10:48:28;4.57;;;2.00;;
26656;SDS011;14279;50.010;8.260;2023-12-20T10:50:55;11.03;;;2.80;;
26656;SDS011;14279;50.010;8.260;2023-12-20T10:53:21;12.60;;;2.67;;
26656;SDS011;14279;50.010;8.260;2023-12-20T10:55:47;9.47;;;2.53;;
26656;SDS011;14279;50.010;8.260;2023-12-20T10:58:16;15.03;;;2.60;;
26656;SDS011;14279;50.010;8.260;2023-12-20T11:00:45;8.80;;;2.00;;
26656;SDS011;14279;50.010;8.260;2023-12-20T11:03:12;9.13;;;1.97;;
26656;SDS011;14279;50.010;8.260;2023-12-20T11:05:59;12.10;;;2.70;;
26656;SDS011;14279;50.010;8.260;2023-12-20T11:08:32;11.73;;;2.83;;
26656;SDS011;14279;50.010;8.260;2023-12-20T11:13:33;13.70;;;2.30;;
26656;SDS011;14279;50.010;8.260;2023-12-20T11:16:02;11.30;;;3.33;;
26656;SDS011;14279;50.010;8.260;2023-12-20T11:18:31;15.20;;;3.10;;
26656;SDS011;14279;50.010;8.260;2023-12-20T11:21:04;12.53;;;2.83;;
26656;SDS011;14279;50.010;8.260;2023-12-20T11:23:30;12.20;;;2.73;;
26656;SDS011;14279;50.010;8.260;2023-12-20T11:25:59;7.83;;;2.30;;
26656;SDS011;14279;50.010;8.260;2023-12-20T11:28:24;14.37;;;3.03;;
26656;SDS011;14279;50.010;8.260;2023-12-20T11:30:54;6.03;;;2.43;;
26656;SDS011;14279;50.010;8.260;2023-12-20T11:33:21;10.43;;;2.87;;
26656;SDS011;14279;50.010;8.260;2023-12-20T11:35:51;8.93;;;2.50;;
26656;SDS011;14279;50.010;8.260;2023-12-20T11:38:17;15.73;;;2.50;;
26656;SDS011;14279;50.010;8.260;2023-12-20T11:40:45;7.17;;;2.43;;
26656;SDS011;14279;50.010;8.260;2023-12-20T11:43:29;7.03;;;2.20;;
26656;SDS011;14279;50.010;8.260;2023-12-20T11:45:55;7.70;;;2.93;;
26656;SDS011;14279;50.010;8.260;2023-12-20T11:48:27;10.10;;;2.33;;
26656;SDS011;14279;50.010;8.260;2023-12-20T11:50:53;5.53;;;2.37;;
26656;SDS011;14279;50.010;8.260;2023-12-20T11:53:18;14.87;;;2.97;;
26656;SDS011;14279;50.010;8.260;2023-12-20T11:55:47;7.77;;;2.63;;
26656;SDS011;14279;50.010;8.260;2023-12-20T11:58:13;6.23;;;2.27;;
26656;SDS011;14279;50.010;8.260;2023-12-20T12:00:40;7.73;;;2.60;;
26656;SDS011;14279;50.010;8.260;2023-12-20T12:03:06;10.20;;;2.50;;
26656;SDS011;14279;50.010;8.260;2023-12-20T12:05:31;7.20;;;2.53;;
26656;SDS011;14279;50.010;8.260;2023-12-20T12:07:58;7.53;;;2.50;;
26656;SDS011;14279;50.010;8.260;2023-12-20T12:10:23;10.90;;;2.93;;
26656;SDS011;14279;50.010;8.260;2023-12-20T12:12:49;6.83;;;2.10;;
26656;SDS011;14279;50.010;8.260;2023-12-20T12:15:15;10.77;;;2.53;;
26656;SDS011;14279;50.010;8.260;2023-12-20T12:17:40;4.50;;;1.97;;
26656;SDS011;14279;50.010;8.260;2023-12-20T12:20:06;6.90;;;2.03;;
26656;SDS011;14279;50.010;8.260;2023-12-20T12:22:33;8.93;;;2.43;;
26656;SDS011;14279;50.010;8.260;2023-12-20T12:24:59;4.77;;;2.43;;
26656;SDS011;14279;50.010;8.260;2023-12-20T12:27:26;9.90;;;2.37;;
26656;SDS011;14279;50.010;8.260;2023-12-20T12:30:02;10.33;;;2.97;;
26656;SDS011;14279;50.010;8.260;2023-12-20T12:32:32;10.93;;;3.63;;
26656;SDS011;14279;50.010;8.260;2023-12-20T12:34:57;12.03;;;2.90;;
26656;SDS011;14279;50.010;8.260;2023-12-20T12:37:23;3.50;;;2.40;;
26656;SDS011;14279;50.010;8.260;2023-12-20T12:39:54;7.73;;;3.07;;
26656;SDS011;14279;50.010;8.260;2023-12-20T12:42:20;8.57;;;2.90;;
26656;SDS011;14279;50.010;8.260;2023-12-20T12:44:46;11.77;;;2.10;;
26656;SDS011;14279;50.010;8.260;2023-12-20T12:47:11;8.00;;;3.03;;
26656;SDS011;14279;50.010;8.260;2023-12-20T12:49:37;6.00;;;2.40;;
26656;SDS011;14279;50.010;8.260;2023-12-20T12:52:02;4.60;;;2.30;;
26656;SDS011;14279;50.010;8.260;2023-12-20T12:54:28;6.33;;;2.63;;
26656;SDS011;14279;50.010;8.260;2023-12-20T12:56:53;8.53;;;2.70;;
26656;SDS011;14279;50.010;8.260;2023-12-20T12:59:18;6.10;;;2.20;;
26656;SDS011;14279;50.010;8.260;2023-12-20T13:01:44;7.20;;;2.10;;
26656;SDS011;14279;50.010;8.260;2023-12-20T13:04:09;9.53;;;2.60;;
26656;SDS011;14279;50.010;8.260;2023-12-20T13:06:38;11.43;;;3.20;;
26656;SDS011;14279;50.010;8.260;2023-12-20T13:09:05;9.40;;;3.27;;
26656;SDS011;14279;50.010;8.260;2023-12-20T13:11:31;11.13;;;3.07;;
26656;SDS011;14279;50.010;8.260;2023-12-20T13:13:57;7.83;;;2.90;;
26656;SDS011;14279;50.010;8.260;2023-12-20T13:16:22;8.70;;;1.73;;
26656;SDS011;14279;50.010;8.260;2023-12-20T13:18:49;6.53;;;2.37;;
26656;SDS011;14279;50.010;8.260;2023-12-20T13:21:14;8.70;;;2.60;;
26656;SDS011;14279;50.010;8.260;2023-12-20T13:23:39;7.33;;;2.20;;
26656;SDS011;14279;50.010;8.260;2023-12-20T13:26:04;5.63;;;2.23;;
26656;SDS011;14279;50.010;8.260;2023-12-20T13:28:30;10.33;;;2.20;;
26656;SDS011;14279;50.010;8.260;2023-12-20T13:30:56;6.33;;;1.90;;
26656;SDS011;14279;50.010;8.260;2023-12-20T13:33:21;8.03;;;2.20;;
26656;SDS011;14279;50.010;8.260;2023-12-20T13:35:46;9.70;;;2.27;;
26656;SDS011;14279;50.010;8.260;2023-12-20T13:38:12;7.47;;;2.50;;
26656;SDS011;14279;50.010;8.260;2023-12-20T13:40:38;4.87;;;2.20;;
26656;SDS011;14279;50.010;8.260;2023-12-20T13:43:03;5.60;;;1.87;;
26656;SDS011;14279;50.010;8.260;2023-12-20T13:45:28;7.27;;;2.20;;
26656;SDS011;14279;50.010;8.260;2023-12-20T13:47:54;5.87;;;2.20;;
26656;SDS011;14279;50.010;8.260;2023-12-20T13:50:19;4.40;;;1.63;;
26656;SDS011;14279;50.010;8.260;2023-12-20T13:52:44;6.83;;;1.50;;
26656;SDS011;14279;50.010;8.260;2023-12-20T13:55:11;7.17;;;2.33;;
26656;SDS011;14279;50.010;8.260;2023-12-20T13:57:36;10.00;;;2.00;;
26656;SDS011;14279;50.010;8.260;2023-12-20T14:00:06;5.17;;;1.77;;
26656;SDS011;14279;50.010;8.260;2023-12-20T14:02:39;3.40;;;1.90;;
26656;SDS011;14279;50.010;8.260;2023-12-20T14:05:04;8.67;;;2.00;;
26656;SDS011;14279;50.010;8.260;2023-12-20T14:07:31;7.60;;;2.00;;
26656;SDS011;14279;50.010;8.260;2023-12-20T14:09:56;5.07;;;1.90;;
26656;SDS011;14279;50.010;8.260;2023-12-20T14:12:21;6.67;;;1.90;;
26656;SDS011;14279;50.010;8.260;2023-12-20T14:14:47;4.50;;;2.03;;
26656;SDS011;14279;50.010;8.260;2023-12-20T14:17:12;6.73;;;1.40;;
26656;SDS011;14279;50.010;8.260;2023-12-20T14:19:37;3.50;;;1.60;;
26656;SDS011;14279;50.010;8.260;2023-12-20T14:22:02;7.03;;;2.13;;
26656;SDS011;14279;50.010;8.260;2023-12-20T14:24:29;4.10;;;1.73;;
26656;SDS011;14279;50.010;8.260;2023-12-20T14:26:54;5.67;;;1.87;;
26656;SDS011;14279;50.010;8.260;2023-12-20T14:29:20;3.43;;;1.53;;
26656;SDS011;14279;50.010;8.260;2023-12-20T14:31:45;3.90;;;1.57;;
26656;SDS011;14279;50.010;8.260;2023-12-20T14:34:10;7.63;;;1.97;;
26656;SDS011;14279;50.010;8.260;2023-12-20T14:36:36;4.73;;;1.97;;
26656;SDS011;14279;50.010;8.260;2023-12-20T14:39:02;5.27;;;2.40;;
26656;SDS011;14279;50.010;8.260;2023-12-20T14:41:29;2.33;;;1.70;;